createdAt,value
2023-06-23T00:02:36.595Z,99874.91
2023-06-23T00:07:38.390Z,99863.09
2023-06-23T00:12:42.401Z,99845.50
2023-06-23T00:17:47.495Z,99818.28
2023-06-23T00:22:48.990Z,99796.53
2023-06-23T00:27:50.423Z,99788.03
2023-06-23T00:32:51.868Z,99756.97
2023-06-23T00:37:54.632Z,99725.91
2023-06-23T00:42:57.324Z,99727.25
2023-06-23T00:47:58.788Z,99682.69
2023-06-23T00:53:00.453Z,99678.00
2023-06-23T00:58:01.935Z,99657.13
2023-06-23T01:03:04.425Z,99651.09
2023-06-23T01:08:31.377Z,99623.88
2023-06-23T01:13:53.823Z,99626.91
2023-06-23T01:19:12.515Z,99597.22
2023-06-23T01:24:30.489Z,99574.13
2023-06-23T01:29:32.737Z,99628.56
2023-06-23T01:34:45.998Z,99667.06
2023-06-23T01:39:51.334Z,99643.41
2023-06-23T01:44:56.265Z,99633.53
2023-06-23T01:49:59.294Z,99614.25
2023-06-23T01:55:00.755Z,99594.19
2023-06-23T02:00:02.463Z,99605.75
2023-06-23T02:05:04.882Z,99618.13
2023-06-23T02:10:07.069Z,99631.59
2023-06-23T02:15:09.147Z,99641.50
2023-06-23T02:20:17.094Z,99654.13
2023-06-23T02:25:18.667Z,99657.44
2023-06-23T02:30:20.596Z,99674.47
2023-06-23T02:35:22.612Z,99692.06
2023-06-23T02:40:25.479Z,99699.75
2023-06-23T02:45:29.284Z,99683.53
2023-06-23T02:50:33.679Z,99686.00
2023-06-23T02:55:38.606Z,99686.81
2023-06-23T03:00:40.046Z,99693.69
2023-06-23T03:05:41.596Z,99692.06
2023-06-23T03:10:43.045Z,99696.19
2023-06-23T03:15:45.690Z,99695.38
2023-06-23T03:20:51.536Z,99703.88
2023-06-23T03:25:53.080Z,99702.25
2023-06-23T03:31:07.123Z,99696.44
2023-06-23T03:36:12.307Z,99695.38
2023-06-23T03:41:14.327Z,99692.34
2023-06-23T03:46:24.647Z,99676.41
2023-06-23T03:51:26.519Z,99677.75
2023-06-23T03:56:27.949Z,99667.88
2023-06-23T04:01:29.609Z,99674.19
2023-06-23T04:06:31.115Z,99695.91
2023-06-23T04:11:32.548Z,99694.00
2023-06-23T04:16:36.006Z,99699.75
2023-06-23T04:21:37.525Z,99701.66
2023-06-23T04:26:39.421Z,99709.38
2023-06-23T04:31:40.908Z,99708.53
2023-06-23T04:36:46.791Z,99720.38
2023-06-23T04:41:49.576Z,99712.41
2023-06-23T04:46:51.401Z,99707.16
2023-06-23T04:51:53.490Z,99710.75
2023-06-23T04:57:01.189Z,99708.56
2023-06-23T05:02:03.523Z,99717.88
2023-06-23T05:07:05.233Z,99722.59
2023-06-23T05:12:07.573Z,99734.38
2023-06-23T05:17:11.156Z,99726.69
2023-06-23T05:22:17.618Z,99729.44
2023-06-23T05:27:24.530Z,99732.75
2023-06-23T05:32:27.269Z,99735.47
2023-06-23T05:37:28.711Z,99737.41
2023-06-23T05:42:33.658Z,99742.06
2023-06-23T05:47:37.098Z,99736.56
2023-06-23T05:52:38.562Z,99736.00
2023-06-23T05:57:40.045Z,99735.16
2023-06-23T06:02:44.302Z,99724.47
2023-06-23T06:07:46.270Z,99729.66
2023-06-23T06:12:50.289Z,99733.50
2023-06-23T06:17:52.698Z,99740.09
2023-06-23T06:23:00.126Z,99731.84
2023-06-23T06:28:10.038Z,99734.59
2023-06-23T06:33:12.435Z,99725.25
2023-06-23T06:38:13.873Z,99736.22
2023-06-23T06:43:15.317Z,99727.69
2023-06-23T06:48:16.792Z,99724.94
2023-06-23T06:53:18.322Z,99726.56
2023-06-23T06:58:19.772Z,99719.72
2023-06-23T07:03:21.436Z,99716.13
2023-06-23T07:08:23.004Z,99728.25
2023-06-23T07:13:24.441Z,99729.56
2023-06-23T07:18:25.984Z,99735.63
2023-06-23T07:23:27.452Z,99725.38
2023-06-23T07:28:28.883Z,99731.91
2023-06-23T07:33:30.456Z,99734.09
2023-06-23T07:38:32.560Z,99724.94
2023-06-23T07:43:34.046Z,99757.69
2023-06-23T07:48:35.490Z,99755.19
2023-06-23T07:53:37.748Z,99758.19
2023-06-23T07:58:42.550Z,99767.28
2023-06-23T08:03:48.136Z,99768.34
2023-06-23T08:08:49.999Z,99774.72
2023-06-23T08:13:51.794Z,99770.00
2023-06-23T08:18:53.329Z,99780.50
2023-06-23T08:23:54.764Z,99787.94
2023-06-23T08:28:56.205Z,99800.06
2023-06-23T08:33:57.652Z,99794.28
2023-06-23T08:38:59.467Z,99798.94
2023-06-23T08:44:01.241Z,99818.81
2023-06-23T08:49:06.371Z,99829.00
2023-06-23T08:54:07.796Z,99825.75
2023-06-23T08:59:09.303Z,99827.41
2023-06-23T09:04:12.218Z,99837.03
2023-06-23T09:09:13.991Z,99836.19
2023-06-23T09:14:15.429Z,99838.72
2023-06-23T09:19:18.674Z,99837.59
2023-06-23T09:24:21.112Z,99844.47
2023-06-23T09:29:23.698Z,99853.28
2023-06-23T09:34:26.668Z,99853.88
2023-06-23T09:39:28.090Z,99859.91
2023-06-23T09:44:36.783Z,99880.28
2023-06-23T09:49:41.904Z,99866.50
2023-06-23T09:54:43.413Z,99870.66
2023-06-23T09:59:45.712Z,99885.22
2023-06-23T10:04:49.183Z,99880.28
2023-06-23T10:09:53.161Z,99878.88
2023-06-23T10:14:57.461Z,99877.22
2023-06-23T10:19:58.868Z,99875.59
2023-06-23T10:25:00.283Z,99888.00
2023-06-23T10:30:01.849Z,99894.66
2023-06-23T10:35:09.437Z,99900.16
2023-06-23T10:40:12.000Z,99912.53
2023-06-23T10:45:13.415Z,99907.03
2023-06-23T10:50:14.867Z,99929.91
2023-06-23T10:55:36.017Z,99935.16
2023-06-23T11:00:37.792Z,99932.41
2023-06-23T11:05:43.456Z,99939.00
2023-06-23T11:10:52.485Z,99928.00
2023-06-23T11:15:55.252Z,99949.75
2023-06-23T11:21:02.397Z,99953.06
2023-06-23T11:26:03.824Z,99953.91
2023-06-23T11:31:14.893Z,99952.53
2023-06-23T11:36:16.815Z,99956.38
2023-06-23T11:41:34.570Z,99955.81
2023-06-23T11:46:36.569Z,99956.38
2023-06-23T11:51:38.006Z,99966.84
2023-06-23T11:56:41.952Z,99967.13
2023-06-23T12:01:43.382Z,99964.91
2023-06-23T12:06:44.891Z,99975.94
2023-06-23T12:11:46.526Z,99968.78
2023-06-23T12:16:48.008Z,99980.91
2023-06-23T12:21:49.445Z,99980.63
2023-06-23T12:26:52.686Z,99982.56
2023-06-23T12:31:56.054Z,99976.50
2023-06-23T12:37:15.419Z,99977.59
2023-06-23T12:42:20.518Z,99993.28
2023-06-23T12:47:22.063Z,99993.00
2023-06-23T12:52:23.555Z,99996.59
2023-06-23T12:57:25.040Z,99994.94
2023-06-23T13:02:26.529Z,99993.84
2023-06-23T13:07:28.044Z,100016.97
2023-06-23T13:12:29.496Z,100021.94
2023-06-23T13:17:31.901Z,100022.75
2023-06-23T13:22:33.446Z,100016.38
2023-06-23T13:27:34.860Z,100015.00
2023-06-23T13:32:36.375Z,100008.66
2023-06-23T13:37:40.587Z,100010.59
2023-06-23T13:42:42.744Z,100020.50
2023-06-23T13:47:44.175Z,100035.06
2023-06-23T13:52:45.880Z,100048.28
2023-06-23T13:57:47.322Z,100043.84
2023-06-23T14:02:48.933Z,100043.31
2023-06-23T14:07:50.487Z,100051.81
2023-06-23T14:12:53.400Z,100052.09
2023-06-23T14:17:54.921Z,100057.56
2023-06-23T14:22:56.347Z,100064.19
2023-06-23T14:27:59.103Z,100051.81
2023-06-23T14:33:03.233Z,100057.00
2023-06-23T14:38:06.506Z,100069.09
2023-06-23T14:43:07.969Z,100073.50
2023-06-23T14:48:09.465Z,100076.22
2023-06-23T14:53:11.357Z,100102.91
2023-06-23T14:58:12.820Z,100086.13
2023-06-23T15:03:14.669Z,100096.88
2023-06-23T15:08:16.185Z,100109.50
2023-06-23T15:13:17.653Z,100111.41
2023-06-23T15:18:19.963Z,100113.06
2023-06-23T15:23:22.833Z,100116.34
2023-06-23T15:28:31.092Z,100123.75
2023-06-23T15:33:32.508Z,100122.88
2023-06-23T15:38:34.221Z,100126.19
2023-06-23T15:43:35.662Z,100128.72
2023-06-23T15:48:37.432Z,100137.16
2023-06-23T15:53:39.114Z,100135.78
2023-06-23T15:58:40.558Z,100145.41
2023-06-23T16:03:42.220Z,100154.47
2023-06-23T16:08:44.760Z,100161.91
2023-06-23T16:13:46.238Z,100160.22
2023-06-23T16:18:47.664Z,100159.41
2023-06-23T16:23:49.074Z,100158.28
2023-06-23T16:28:50.514Z,100161.97
2023-06-23T16:33:52.107Z,100155.38
2023-06-23T16:38:53.548Z,100154.41
2023-06-23T16:43:55.102Z,100155.75
2023-06-23T16:48:56.587Z,100158.00
2023-06-23T16:53:58.010Z,100162.44
2023-06-23T16:58:59.519Z,100165.75
2023-06-23T17:04:01.108Z,100168.75
2023-06-23T17:09:02.700Z,100181.19
2023-06-23T17:14:04.140Z,100189.44
2023-06-23T17:19:05.566Z,100201.81
2023-06-23T17:24:07.038Z,100204.25
2023-06-23T17:29:08.467Z,100229.75
2023-06-23T17:34:10.748Z,100231.34
2023-06-23T17:39:12.201Z,100237.59
2023-06-23T17:44:13.621Z,100232.25
2023-06-23T17:49:15.299Z,100233.03
2023-06-23T17:54:16.724Z,100265.69
2023-06-23T17:59:18.164Z,100303.53
2023-06-23T18:04:19.578Z,100310.19
2023-06-23T18:09:21.040Z,100323.34
2023-06-23T18:14:22.514Z,100346.38
2023-06-23T18:19:25.549Z,100360.53
2023-06-23T18:24:27.136Z,100376.03
2023-06-23T18:29:28.573Z,100378.41
2023-06-23T18:34:30.101Z,100408.28
2023-06-23T18:39:31.514Z,100412.56
2023-06-23T18:44:32.958Z,100413.06
2023-06-23T18:49:34.399Z,100424.56
2023-06-23T18:54:35.858Z,100424.84
2023-06-23T18:59:37.287Z,100445.25
2023-06-23T19:04:38.720Z,100455.59
2023-06-23T19:09:40.379Z,100474.13
2023-06-23T19:14:42.588Z,100481.59
2023-06-23T19:19:44.181Z,100501.84
2023-06-23T19:24:45.610Z,100525.03
2023-06-23T19:29:47.033Z,100526.28
2023-06-23T19:34:48.465Z,100543.81
2023-06-23T19:39:59.172Z,100555.41
2023-06-23T19:45:02.223Z,100573.44
2023-06-23T19:50:03.723Z,100570.47
2023-06-23T19:55:05.208Z,100594.84
2023-06-23T20:00:07.506Z,100604.88
2023-06-23T20:05:09.821Z,100616.09
2023-06-23T20:10:11.324Z,100623.75
2023-06-23T20:15:12.780Z,100640.56
2023-06-23T20:20:14.202Z,100635.09
2023-06-23T20:25:15.794Z,100629.47
2023-06-23T20:30:17.227Z,100638.63
2023-06-23T20:35:18.928Z,100645.13
2023-06-23T20:40:20.360Z,100651.56
2023-06-23T20:45:23.816Z,100650.84
2023-06-23T20:50:25.288Z,100653.84
2023-06-23T20:55:26.699Z,100647.53
2023-06-23T21:00:28.117Z,100653.47
2023-06-23T21:05:29.574Z,100654.66
2023-06-23T21:10:31.063Z,100661.25
2023-06-23T21:15:32.767Z,100660.16
2023-06-23T21:20:34.530Z,100664.00
2023-06-23T21:25:36.219Z,100659.94
2023-06-23T21:30:38.237Z,100680.91
2023-06-23T21:35:41.283Z,100691.19
2023-06-23T21:40:44.006Z,100689.63
2023-06-23T21:45:45.432Z,100691.88
2023-06-23T21:50:49.939Z,100704.50
2023-06-23T21:55:51.411Z,100703.22
2023-06-23T22:00:52.848Z,100705.25
2023-06-23T22:05:54.274Z,100718.56
2023-06-23T22:10:55.726Z,100710.34
2023-06-23T22:15:58.060Z,100734.94
2023-06-23T22:20:59.525Z,100737.97
2023-06-23T22:26:00.945Z,100734.94
2023-06-23T22:31:06.608Z,100738.06
2023-06-23T22:36:08.218Z,100731.28
2023-06-23T22:41:09.663Z,100731.97
2023-06-23T22:46:11.133Z,100745.22
2023-06-23T22:51:12.609Z,100737.69
2023-06-23T22:56:14.099Z,100733.75
2023-06-23T23:01:15.564Z,100734.59
2023-06-23T23:06:17.939Z,100741.50
2023-06-23T23:11:19.412Z,100736.88
2023-06-23T23:16:26.330Z,100749.53
2023-06-23T23:21:27.778Z,100748.81
2023-06-23T23:26:30.330Z,100751.69
2023-06-23T23:31:32.736Z,100752.88
2023-06-23T23:36:34.697Z,100744.41
2023-06-23T23:41:36.136Z,100749.25
2023-06-23T23:46:37.649Z,100751.31
2023-06-23T23:51:39.093Z,100750.72
2023-06-23T23:56:40.520Z,100747.75
